Time;durP1;ratioP1;P1;durP2;ratioP2;P2;SDS_P1;SDS_P2;PMS_P1;PMS_P2;Temp;Humidity;BMP_temperature;BMP_pressure;BME280_temperature;BME280_humidity;BME280_pressure;Samples;Min_cycle;Max_cycle;Signal;HPM_P1;HPM_P2
2023/03/14 00:01:10;;;;;;;4.18;1.10;;;14.90;51.50;;;;;;4975123;28;20046;-84
2023/03/14 00:03:37;;;;;;;4.57;1.35;;;14.90;51.50;;;;;;4981638;28;20042;-85
2023/03/14 00:06:05;;;;;;;4.20;0.95;;;14.90;51.50;;;;;;4979333;28;20061;-86
2023/03/14 00:08:33;;;;;;;5.43;1.30;;;14.90;51.40;;;;;;4976157;28;20058;-84
2023/03/14 00:11:05;;;;;;;7.32;1.63;;;14.90;51.40;;;;;;4976384;28;20108;-85
2023/03/14 00:13:34;;;;;;;3.28;1.00;;;14.90;51.40;;;;;;4976362;28;20061;-86
2023/03/14 00:16:06;;;;;;;10.05;1.17;;;14.90;51.40;;;;;;4976419;28;20058;-87
2023/03/14 00:18:34;;;;;;;7.22;1.67;;;14.90;51.40;;;;;;4984166;28;20146;-84
2023/03/14 00:21:02;;;;;;;5.07;1.40;;;14.90;51.40;;;;;;4975216;28;20046;-84
2023/03/14 00:23:30;;;;;;;5.97;1.13;;;14.80;51.30;;;;;;4977899;28;20043;-84
2023/03/14 00:26:00;;;;;;;7.45;1.23;;;14.90;51.40;;;;;;4983527;28;20053;-84
2023/03/14 00:28:28;;;;;;;8.07;1.63;;;14.80;51.40;;;;;;4978699;28;20058;-86
2023/03/14 00:30:57;;;;;;;6.95;1.20;;;14.80;51.90;;;;;;4976024;28;20046;-87
2023/03/14 00:33:24;;;;;;;5.75;0.95;;;14.80;51.40;;;;;;4979870;28;20085;-85
2023/03/14 00:35:56;;;;;;;7.85;1.40;;;14.80;51.40;;;;;;4977602;28;20054;-83
2023/03/14 00:38:24;;;;;;;7.43;1.60;;;14.80;51.50;;;;;;4978372;28;20054;-86
2023/03/14 00:40:52;;;;;;;6.57;1.20;;;14.80;51.50;;;;;;4973986;28;20050;-84
2023/03/14 00:43:21;;;;;;;8.98;1.63;;;14.80;51.50;;;;;;4979740;28;20426;-85
2023/03/14 00:45:48;;;;;;;7.03;1.13;;;14.80;51.60;;;;;;4980158;28;20050;-84
2023/03/14 00:48:18;;;;;;;4.43;1.33;;;14.80;51.50;;;;;;4978989;28;20058;-84
2023/03/14 00:50:45;;;;;;;8.02;1.90;;;14.80;51.50;;;;;;4978130;28;20050;-85
2023/03/14 00:53:13;;;;;;;8.38;1.92;;;14.80;52.00;;;;;;4988899;28;20526;-84
2023/03/14 00:55:42;;;;;;;6.85;1.40;;;14.80;51.50;;;;;;4988759;28;20054;-86
2023/03/14 00:58:10;;;;;;;6.82;1.45;;;14.80;51.50;;;;;;4982048;28;20490;-84
2023/03/14 01:00:37;;;;;;;10.02;1.40;;;14.80;51.40;;;;;;4986574;28;20050;-84
2023/03/14 01:03:06;;;;;;;3.75;1.20;;;14.80;51.40;;;;;;4981597;28;20069;-84
2023/03/14 01:05:35;;;;;;;5.13;1.02;;;14.80;51.40;;;;;;4981075;28;20062;-85
2023/03/14 01:08:02;;;;;;;5.95;1.33;;;14.80;51.50;;;;;;4981692;28;20058;-85
2023/03/14 01:10:30;;;;;;;7.18;1.35;;;14.80;51.60;;;;;;4979826;28;20970;-86
2023/03/14 01:12:57;;;;;;;7.57;1.00;;;14.80;51.60;;;;;;4980456;28;20061;-84
2023/03/14 01:15:24;;;;;;;7.80;1.40;;;14.80;51.60;;;;;;4988805;28;20043;-84
2023/03/14 01:17:52;;;;;;;6.43;1.30;;;14.80;51.50;;;;;;4988900;28;20057;-83
2023/03/14 01:20:19;;;;;;;5.35;1.05;;;14.80;51.60;;;;;;4982688;28;20081;-86
2023/03/14 01:22:48;;;;;;;7.00;1.15;;;14.80;51.60;;;;;;4978298;28;20386;-86
2023/03/14 01:25:17;;;;;;;4.13;1.20;;;14.80;51.60;;;;;;4981967;28;20051;-84
2023/03/14 01:27:45;;;;;;;7.97;1.45;;;14.80;51.70;;;;;;4987360;28;20054;-85
2023/03/14 01:30:13;;;;;;;6.82;1.38;;;14.80;51.60;;;;;;4976566;28;20486;-84
2023/03/14 01:32:40;;;;;;;11.77;2.50;;;14.80;51.50;;;;;;4982317;28;20057;-87
2023/03/14 01:35:08;;;;;;;9.27;1.73;;;14.80;51.50;;;;;;4987471;28;20073;-88
2023/03/14 01:37:35;;;;;;;4.85;1.42;;;14.80;51.50;;;;;;4979479;28;20422;-86
2023/03/14 01:40:05;;;;;;;5.38;1.35;;;14.80;52.10;;;;;;4982680;28;20407;-85
2023/03/14 01:42:33;;;;;;;3.33;0.98;;;14.80;51.60;;;;;;4981297;28;20046;-85
2023/03/14 01:45:02;;;;;;;7.18;1.33;;;14.80;51.60;;;;;;4982072;28;20054;-84
2023/03/14 01:47:29;;;;;;;7.40;1.33;;;14.80;51.60;;;;;;4976994;28;20066;-85
2023/03/14 01:50:02;;;;;;;6.93;1.35;;;14.70;51.60;;;;;;4984983;28;20384;-84
2023/03/14 01:52:35;;;;;;;5.75;1.75;;;14.70;51.60;;;;;;4981179;28;20069;-87
2023/03/14 01:55:10;;;;;;;6.50;1.30;;;14.80;51.80;;;;;;4981796;28;20058;-84
2023/03/14 01:57:40;;;;;;;8.50;1.20;;;14.70;51.90;;;;;;4981521;28;20050;-85
2023/03/14 02:00:13;;;;;;;6.72;1.02;;;14.70;52.00;;;;;;4980519;28;20061;-84
2023/03/14 02:02:43;;;;;;;6.63;1.23;;;14.70;52.00;;;;;;4973527;23;20050;-55
2023/03/14 02:05:11;;;;;;;9.30;1.42;;;14.70;52.00;;;;;;4965962;28;20410;-53
2023/03/14 02:07:44;;;;;;;5.28;1.10;;;14.70;52.00;;;;;;4966466;28;20058;-49
2023/03/14 02:10:13;;;;;;;5.43;1.15;;;14.70;52.10;;;;;;4966114;28;20065;-52
2023/03/14 02:27:03;;;;;;;8.45;1.10;;;14.70;52.70;;;;;;4970764;28;20054;-55
2023/03/14 02:29:34;;;;;;;5.20;1.25;;;14.70;52.70;;;;;;4966953;28;20751;-48
2023/03/14 02:32:01;;;;;;;4.78;1.15;;;14.70;52.70;;;;;;4966091;28;20509;-49
2023/03/14 02:34:31;;;;;;;5.20;1.58;;;14.60;52.70;;;;;;4963715;28;20061;-52
2023/03/14 02:37:00;;;;;;;6.60;1.13;;;14.60;52.70;;;;;;4967677;28;20058;-50
2023/03/14 02:39:34;;;;;;;7.53;1.58;;;14.60;52.60;;;;;;4965542;28;20055;-53
2023/03/14 02:42:01;;;;;;;8.70;1.40;;;14.60;52.50;;;;;;4963638;28;20050;-53
2023/03/14 02:44:29;;;;;;;6.88;1.20;;;14.50;52.40;;;;;;4964842;28;20452;-47
2023/03/14 02:46:58;;;;;;;7.15;1.40;;;14.50;52.30;;;;;;4966229;28;20059;-46
2023/03/14 02:49:31;;;;;;;4.50;1.13;;;14.50;52.30;;;;;;4965026;28;20054;-49
2023/03/14 02:51:59;;;;;;;9.82;1.95;;;14.50;52.30;;;;;;4964352;28;20508;-47
2023/03/14 02:54:26;;;;;;;7.60;1.58;;;14.40;52.20;;;;;;4964695;28;20487;-53
2023/03/14 02:56:53;;;;;;;7.47;1.92;;;14.40;52.20;;;;;;4963337;28;20070;-49
2023/03/14 02:59:21;;;;;;;6.85;1.40;;;14.40;52.20;;;;;;4965522;28;20066;-49
2023/03/14 03:01:48;;;;;;;4.38;1.08;;;14.40;52.20;;;;;;4965860;28;20154;-57
2023/03/14 03:04:16;;;;;;;9.98;1.67;;;14.40;52.10;;;;;;4965812;28;20066;-57
2023/03/14 03:06:44;;;;;;;7.85;1.50;;;14.30;52.50;;;;;;4964025;28;20042;-57
2023/03/14 03:09:11;;;;;;;11.55;1.52;;;14.30;52.10;;;;;;4966366;28;20105;-56
2023/03/14 03:11:38;;;;;;;8.18;1.45;;;14.30;52.10;;;;;;4965059;28;20046;-48
2023/03/14 03:14:05;;;;;;;9.88;1.60;;;14.30;52.00;;;;;;4964587;28;20055;-49
2023/03/14 03:16:32;;;;;;;7.75;1.48;;;14.30;52.00;;;;;;4965690;28;20055;-48
2023/03/14 03:19:00;;;;;;;7.55;1.98;;;14.30;52.00;;;;;;4965599;28;20582;-49
2023/03/14 03:21:28;;;;;;;8.80;1.48;;;14.20;51.80;;;;;;4964754;28;20058;-49
2023/03/14 03:23:55;;;;;;;7.28;1.33;;;14.20;51.90;;;;;;4964507;28;20062;-50
2023/03/14 03:26:23;;;;;;;5.85;1.50;;;14.20;51.90;;;;;;4962797;28;20054;-50
2023/03/14 03:28:51;;;;;;;7.53;1.40;;;14.20;51.90;;;;;;4963889;28;20054;-51
2023/03/14 03:31:19;;;;;;;7.10;1.30;;;14.20;51.90;;;;;;4964330;28;20882;-47
2023/03/14 03:33:46;;;;;;;8.68;1.45;;;14.10;51.90;;;;;;4967026;28;20046;-51
2023/03/14 03:36:13;;;;;;;5.32;1.35;;;14.10;51.90;;;;;;4966806;28;20047;-48
2023/03/14 03:38:42;;;;;;;7.90;2.10;;;14.10;51.90;;;;;;4967721;28;20073;-52
2023/03/14 03:41:09;;;;;;;6.53;1.83;;;14.10;51.90;;;;;;4966089;28;20054;-54
2023/03/14 03:43:36;;;;;;;8.68;1.40;;;14.10;51.90;;;;;;4967068;28;20073;-51
2023/03/14 03:46:05;;;;;;;8.43;1.30;;;14.20;52.00;;;;;;4965545;28;20387;-48
2023/03/14 03:48:32;;;;;;;10.65;1.65;;;14.10;51.90;;;;;;4967145;28;20066;-46
2023/03/14 03:51:00;;;;;;;5.82;1.27;;;14.20;51.90;;;;;;4967201;28;20069;-51
2023/03/14 03:53:27;;;;;;;6.25;1.40;;;14.10;51.90;;;;;;4966013;28;20066;-54
2023/03/14 03:55:55;;;;;;;5.68;1.20;;;14.10;51.90;;;;;;4965058;28;20058;-56
2023/03/14 03:58:23;;;;;;;6.25;1.20;;;14.10;52.00;;;;;;4965586;28;20058;-52
2023/03/14 04:00:50;;;;;;;9.57;1.63;;;14.20;52.10;;;;;;4965482;28;20047;-48
2023/03/14 04:03:17;;;;;;;10.45;1.63;;;14.20;52.10;;;;;;4965537;28;20066;-49
2023/03/14 04:05:44;;;;;;;8.07;1.48;;;14.20;52.10;;;;;;4965664;28;20062;-51
2023/03/14 04:08:12;;;;;;;3.97;1.10;;;14.20;52.10;;;;;;4966987;28;20395;-49
2023/03/14 04:10:39;;;;;;;4.65;1.20;;;14.20;52.10;;;;;;4966113;28;20055;-51
2023/03/14 04:13:07;;;;;;;6.75;0.90;;;14.20;52.20;;;;;;4963956;28;20055;-49
2023/03/14 04:15:35;;;;;;;6.20;1.30;;;14.20;52.20;;;;;;4963740;28;20502;-48
2023/03/14 04:18:02;;;;;;;3.42;0.82;;;14.20;52.20;;;;;;4964424;28;20055;-49
2023/03/14 04:20:29;;;;;;;7.05;1.25;;;14.20;52.10;;;;;;4963434;28;20467;-52
2023/03/14 04:22:56;;;;;;;4.35;0.90;;;14.20;52.20;;;;;;4964251;28;20062;-47
2023/03/14 04:25:24;;;;;;;4.68;0.75;;;14.20;52.10;;;;;;4963909;28;20051;-53
2023/03/14 04:27:51;;;;;;;5.45;1.13;;;14.10;52.10;;;;;;4944359;28;20050;-52
2023/03/14 04:30:19;;;;;;;8.43;0.77;;;14.10;52.10;;;;;;4963558;28;20065;-50
2023/03/14 04:32:47;;;;;;;3.65;0.70;;;14.10;52.10;;;;;;4965050;28;20051;-50
2023/03/14 04:35:14;;;;;;;2.35;0.50;;;14.10;52.10;;;;;;4964452;28;21325;-52
2023/03/14 04:37:43;;;;;;;9.32;0.68;;;14.20;52.20;;;;;;4962859;28;20418;-53
2023/03/14 04:40:11;;;;;;;3.47;0.70;;;14.20;52.20;;;;;;4964313;28;20066;-51
2023/03/14 04:42:39;;;;;;;4.85;0.82;;;14.10;52.10;;;;;;4964450;28;20125;-49
2023/03/14 04:45:07;;;;;;;3.03;0.60;;;14.10;52.20;;;;;;4965065;28;20047;-54
2023/03/14 04:47:36;;;;;;;3.65;0.75;;;14.10;52.10;;;;;;4964414;28;20513;-49
2023/03/14 04:50:04;;;;;;;3.65;0.70;;;14.10;52.20;;;;;;4964666;28;20058;-50
2023/03/14 04:52:31;;;;;;;1.67;0.30;;;14.10;52.20;;;;;;4964290;28;20050;-49
2023/03/14 04:54:58;;;;;;;2.45;0.52;;;14.10;52.20;;;;;;4964725;28;20062;-51
2023/03/14 04:57:26;;;;;;;1.80;0.55;;;14.20;52.30;;;;;;4963068;28;20061;-49
2023/03/14 04:59:53;;;;;;;1.83;0.55;;;14.10;52.30;;;;;;4964268;28;20062;-53
2023/03/14 05:02:20;;;;;;;3.72;0.75;;;14.10;52.30;;;;;;4963749;28;20050;-54
2023/03/14 05:04:49;;;;;;;2.25;0.50;;;14.20;52.90;;;;;;4964485;28;20058;-49
2023/03/14 05:07:16;;;;;;;0.65;0.35;;;14.10;52.40;;;;;;4963310;28;20426;-54
2023/03/14 05:09:43;;;;;;;3.28;0.60;;;14.10;52.40;;;;;;4962773;28;20055;-52
2023/03/14 05:12:11;;;;;;;0.88;0.40;;;14.10;52.40;;;;;;4963005;28;20525;-50
2023/03/14 05:14:39;;;;;;;1.83;0.50;;;14.20;52.50;;;;;;4962400;28;20058;-55
2023/03/14 05:17:06;;;;;;;2.13;0.40;;;14.20;52.50;;;;;;4964282;28;20073;-52
2023/03/14 05:19:36;;;;;;;2.15;0.40;;;14.20;52.60;;;;;;4963130;28;20054;-52
2023/03/14 05:22:05;;;;;;;1.20;0.35;;;14.20;52.70;;;;;;4964166;28;20406;-47
2023/03/14 05:24:32;;;;;;;0.80;0.30;;;14.10;52.60;;;;;;4960775;28;20043;-53
2023/03/14 05:27:00;;;;;;;0.85;0.30;;;14.20;52.70;;;;;;4962640;28;20070;-53
2023/03/14 05:29:27;;;;;;;5.47;0.35;;;14.10;52.60;;;;;;4965058;28;20066;-50
2023/03/14 05:31:54;;;;;;;0.57;0.20;;;14.10;52.70;;;;;;4962814;28;20506;-49
2023/03/14 05:34:21;;;;;;;1.20;0.10;;;14.20;52.70;;;;;;4964458;28;20054;-53
2023/03/14 05:36:48;;;;;;;2.33;0.13;;;14.10;52.70;;;;;;4963755;28;20602;-49
2023/03/14 05:39:17;;;;;;;0.60;0.17;;;14.10;52.70;;;;;;4968270;28;20050;-52
2023/03/14 05:41:44;;;;;;;2.03;0.20;;;14.10;52.70;;;;;;4965978;28;20058;-55
2023/03/14 05:44:12;;;;;;;1.48;0.20;;;14.10;52.70;;;;;;4964061;28;20061;-51
2023/03/14 05:46:39;;;;;;;0.50;0.17;;;14.10;52.70;;;;;;4966689;28;20057;-52
2023/03/14 05:49:06;;;;;;;0.40;0.10;;;14.00;52.60;;;;;;4966219;28;20061;-54
2023/03/14 05:51:33;;;;;;;0.43;0.10;;;14.00;52.60;;;;;;4966527;28;20062;-55
2023/03/14 05:54:01;;;;;;;1.75;0.15;;;14.00;52.60;;;;;;4965937;28;20054;-53
2023/03/14 05:56:29;;;;;;;0.63;0.10;;;14.00;52.70;;;;;;4965743;28;20402;-52
2023/03/14 05:58:56;;;;;;;1.20;0.20;;;14.00;52.70;;;;;;4965400;28;20070;-52
2023/03/14 06:01:24;;;;;;;4.55;1.77;;;14.00;52.70;;;;;;4964692;28;20407;-49
2023/03/14 06:03:51;;;;;;;1.45;0.30;;;14.00;52.60;;;;;;4963411;28;20058;-52
2023/03/14 06:06:18;;;;;;;0.73;0.20;;;14.00;52.70;;;;;;4967128;28;20061;-49
2023/03/14 06:08:45;;;;;;;0.75;0.10;;;14.00;52.70;;;;;;4967196;28;20502;-52
2023/03/14 06:11:13;;;;;;;0.15;0.00;;;13.90;52.60;;;;;;4965009;28;20486;-55
2023/03/14 06:13:41;;;;;;;0.88;0.10;;;13.90;52.70;;;;;;4965787;28;20050;-53
2023/03/14 06:16:09;;;;;;;0.00;0.00;;;13.90;52.80;;;;;;4967569;28;20058;-52
2023/03/14 06:18:36;;;;;;;0.57;0.20;;;13.90;52.90;;;;;;4966852;28;20059;-52
2023/03/14 06:21:04;;;;;;;1.15;0.20;;;13.90;52.90;;;;;;4967427;28;20078;-52
2023/03/14 06:23:31;;;;;;;23.35;9.88;;;13.80;53.00;;;;;;4965762;28;21201;-50
2023/03/14 06:26:33;;;;;;;30.05;14.27;;;13.80;53.20;;;;;;4963849;28;20988;-51
2023/03/14 06:31:47;;;;;;;16.13;10.32;;;13.80;53.60;;;;;;4941045;28;20065;-51
2023/03/14 06:34:21;;;;;;;3.97;2.63;;;13.80;53.60;;;;;;4964743;28;20105;-50
2023/03/14 06:40:37;;;;;;;1.00;0.70;;;13.80;54.00;;;;;;4905294;29;20444;-54
2023/03/14 06:43:06;;;;;;;2.78;1.88;;;13.70;53.80;;;;;;4927187;28;21489;-52
2023/03/14 06:46:07;;;;;;;0.93;0.57;;;13.70;53.80;;;;;;4963934;28;20062;-51
2023/03/14 06:49:22;;;;;;;1.08;0.52;;;13.70;53.90;;;;;;4963442;28;20046;-50
2023/03/14 06:58:57;;;;;;;1.48;0.65;;;13.70;54.10;;;;;;4936641;28;20376;-43
2023/03/14 07:01:27;;;;;;;3.95;0.57;;;13.60;54.00;;;;;;4948522;28;20051;-50
2023/03/14 07:03:55;;;;;;;15.75;1.05;;;13.60;54.00;;;;;;4966100;28;20050;-51
2023/03/14 07:06:22;;;;;;;1.77;0.50;;;13.60;54.00;;;;;;4965738;28;20055;-50
2023/03/14 07:08:49;;;;;;;1.80;0.30;;;13.60;54.10;;;;;;4965320;28;20051;-51
2023/03/14 07:11:17;;;;;;;0.80;0.28;;;13.60;54.10;;;;;;4964060;28;20058;-53
2023/03/14 07:13:44;;;;;;;0.68;0.17;;;13.60;54.20;;;;;;4966096;28;20602;-54
2023/03/14 07:16:12;;;;;;;1.38;0.40;;;13.60;54.10;;;;;;4966733;28;20418;-54
2023/03/14 07:18:41;;;;;;;0.80;0.30;;;13.60;54.20;;;;;;4966500;28;20426;-54
2023/03/14 07:21:09;;;;;;;0.38;0.20;;;13.60;54.20;;;;;;4965394;28;20058;-50
2023/03/14 07:23:37;;;;;;;0.35;0.20;;;13.70;54.20;;;;;;4965678;28;20517;-51
2023/03/14 07:26:04;;;;;;;0.98;0.25;;;13.70;54.20;;;;;;4964556;28;20474;-51
2023/03/14 07:28:32;;;;;;;0.88;0.10;;;13.70;54.20;;;;;;4965080;28;20062;-51
2023/03/14 07:30:59;;;;;;;1.63;0.20;;;13.70;54.70;;;;;;4964712;28;20503;-48
2023/03/14 07:33:26;;;;;;;11.52;4.38;;;13.70;54.20;;;;;;4964842;28;20059;-54
2023/03/14 07:35:55;;;;;;;2.45;1.23;;;13.80;54.20;;;;;;4966011;28;20058;-49
2023/03/14 07:38:22;;;;;;;0.65;0.40;;;13.80;54.30;;;;;;4962627;28;20418;-51
2023/03/14 07:40:49;;;;;;;1.38;0.32;;;13.80;54.20;;;;;;4964488;28;20145;-53
2023/03/14 07:43:17;;;;;;;0.28;0.15;;;13.80;54.20;;;;;;4965408;28;20051;-46
2023/03/14 07:45:47;;;;;;;0.13;0.13;;;13.80;54.20;;;;;;4966429;28;20049;-52
2023/03/14 07:48:14;;;;;;;0.20;0.10;;;13.80;54.30;;;;;;4964299;28;20057;-49
2023/03/14 07:50:41;;;;;;;0.10;0.10;;;13.80;54.30;;;;;;4964262;28;20122;-54
2023/03/14 07:53:10;;;;;;;0.35;0.15;;;13.80;54.30;;;;;;4964427;28;20062;-47
2023/03/14 07:55:37;;;;;;;0.45;0.20;;;13.90;54.40;;;;;;4963512;28;20423;-54
2023/03/14 07:58:05;;;;;;;0.10;0.00;;;13.90;54.40;;;;;;4963673;28;20505;-51
2023/03/14 08:00:32;;;;;;;0.70;0.20;;;13.90;54.40;;;;;;4962940;28;20051;-53
2023/03/14 08:03:00;;;;;;;0.10;0.10;;;13.90;54.40;;;;;;4962190;28;20448;-52
2023/03/14 08:05:27;;;;;;;0.10;0.10;;;13.90;54.40;;;;;;4964384;28;20657;-49
2023/03/14 08:07:54;;;;;;;2.72;0.20;;;13.90;54.50;;;;;;4963271;28;20053;-44
2023/03/14 08:10:23;;;;;;;0.40;0.30;;;13.90;54.40;;;;;;4964207;28;20061;-51
2023/03/14 08:12:50;;;;;;;0.10;0.10;;;14.00;54.50;;;;;;4964040;28;20077;-46
2023/03/14 08:15:18;;;;;;;0.45;0.08;;;14.00;54.40;;;;;;4962986;28;20593;-45
2023/03/14 08:17:45;;;;;;;0.10;0.10;;;14.10;54.50;;;;;;4958647;28;20065;-52
2023/03/14 08:20:13;;;;;;;1.30;0.25;;;14.00;54.40;;;;;;4963116;28;20418;-52
2023/03/14 08:22:40;;;;;;;0.20;0.20;;;14.10;54.50;;;;;;4962159;28;20050;-49
2023/03/14 08:25:08;;;;;;;0.30;0.20;;;14.10;54.50;;;;;;4966330;28;20050;-45
2023/03/14 08:27:38;;;;;;;0.38;0.30;;;14.10;54.50;;;;;;4963381;28;20480;-46
2023/03/14 08:30:06;;;;;;;0.30;0.20;;;14.20;54.50;;;;;;4962680;28;20058;-50
2023/03/14 08:32:34;;;;;;;0.65;0.10;;;14.20;54.50;;;;;;4964987;28;20062;-52
2023/03/14 08:35:01;;;;;;;1.65;0.15;;;14.20;54.40;;;;;;4966267;28;20061;-51
2023/03/14 08:37:28;;;;;;;0.10;0.10;;;14.20;54.40;;;;;;4965573;28;20503;-56
2023/03/14 08:39:55;;;;;;;0.40;0.10;;;14.30;54.50;;;;;;4964501;28;20413;-45
2023/03/14 08:45:46;;;;;;;0.13;0.00;;;14.30;54.60;;;;;;4969531;28;20045;-48
2023/03/14 08:48:13;;;;;;;0.20;0.08;;;14.30;54.50;;;;;;4964706;28;20403;-54
2023/03/14 08:50:40;;;;;;;0.20;0.10;;;14.40;54.50;;;;;;4964093;28;20444;-47
2023/03/14 08:53:08;;;;;;;0.10;0.10;;;14.40;54.50;;;;;;4964534;28;20054;-48
2023/03/14 08:55:35;;;;;;;0.38;0.10;;;14.40;54.50;;;;;;4962949;28;20046;-45
2023/03/14 08:58:03;;;;;;;0.10;0.10;;;14.40;54.50;;;;;;4964608;28;20054;-46
2023/03/14 09:00:30;;;;;;;1.02;0.00;;;14.50;54.50;;;;;;4964383;28;20058;-45
2023/03/14 09:02:59;;;;;;;0.10;0.10;;;14.50;54.40;;;;;;4942662;28;20048;-46
2023/03/14 09:05:26;;;;;;;0.08;0.03;;;14.50;54.40;;;;;;4944332;28;20047;-45
2023/03/14 09:07:53;;;;;;;2.88;1.40;;;14.50;54.40;;;;;;4945043;28;20089;-49
2023/03/14 09:10:20;;;;;;;0.98;0.50;;;14.50;54.50;;;;;;4943539;28;20062;-53
2023/03/14 09:12:48;;;;;;;0.10;0.10;;;14.50;54.50;;;;;;4948432;28;20055;-50
2023/03/14 09:15:15;;;;;;;0.00;0.00;;;14.60;54.60;;;;;;4949883;28;20142;-55
2023/03/14 09:17:43;;;;;;;0.68;0.30;;;14.60;54.60;;;;;;4949797;28;20055;-53
2023/03/14 09:20:14;;;;;;;0.10;0.10;;;14.60;54.60;;;;;;4948211;28;20491;-54
2023/03/14 09:22:41;;;;;;;0.40;0.30;;;14.70;54.60;;;;;;4948301;28;20050;-51
2023/03/14 09:25:09;;;;;;;0.00;0.00;;;14.70;54.80;;;;;;4949783;28;20090;-51
2023/03/14 09:27:37;;;;;;;0.00;0.00;;;14.70;54.90;;;;;;4948257;28;20147;-45
2023/03/14 09:30:05;;;;;;;0.00;0.00;;;14.70;55.10;;;;;;4948950;28;20063;-51
2023/03/14 09:32:32;;;;;;;2.25;0.10;;;14.80;55.20;;;;;;4949774;28;20058;-54
2023/03/14 09:34:59;;;;;;;2.58;0.35;;;14.80;55.40;;;;;;4945464;28;20055;-49
2023/03/14 09:37:28;;;;;;;1.45;0.17;;;14.70;55.60;;;;;;4948667;28;20460;-49
2023/03/14 09:39:55;;;;;;;2.60;0.30;;;14.80;55.70;;;;;;4948919;28;20058;-52
2023/03/14 09:42:28;;;;;;;0.28;0.08;;;14.80;55.80;;;;;;4946763;28;20130;-54
2023/03/14 09:44:58;;;;;;;0.40;0.15;;;14.70;56.20;;;;;;4946731;28;20051;-47
2023/03/14 09:47:27;;;;;;;2.47;0.30;;;14.70;56.20;;;;;;4948861;28;20055;-46
2023/03/14 09:49:54;;;;;;;0.30;0.10;;;14.70;56.30;;;;;;4948208;28;20073;-48
2023/03/14 09:52:25;;;;;;;0.30;0.10;;;14.70;56.50;;;;;;4946738;28;20067;-51
2023/03/14 09:54:58;;;;;;;0.95;0.20;;;14.70;56.70;;;;;;4947022;28;20059;-52
2023/03/14 09:57:27;;;;;;;0.30;0.30;;;14.70;56.70;;;;;;4945570;28;20065;-48
2023/03/14 09:59:59;;;;;;;0.93;0.32;;;14.60;56.70;;;;;;4945482;28;20051;-51
2023/03/14 10:02:36;;;;;;;0.30;0.20;;;14.70;56.80;;;;;;4960149;28;20529;-47
2023/03/14 10:05:09;;;;;;;0.20;0.10;;;14.60;56.70;;;;;;4966279;28;20421;-49
2023/03/14 10:07:39;;;;;;;0.45;0.20;;;14.60;56.50;;;;;;4966692;28;20051;-47
2023/03/14 10:10:14;;;;;;;0.55;0.17;;;14.60;56.20;;;;;;4966188;28;20055;-51
2023/03/14 10:12:41;;;;;;;0.82;0.17;;;14.50;56.10;;;;;;4964922;28;20054;-50
2023/03/14 10:15:13;;;;;;;0.55;0.10;;;14.50;56.10;;;;;;4965107;28;20054;-46
2023/03/14 10:17:43;;;;;;;0.20;0.10;;;14.40;55.20;;;;;;4964623;28;20065;-45
2023/03/14 10:20:32;;;;;;;0.57;0.20;;;14.20;54.60;;;;;;4965263;28;20406;-48
2023/03/14 10:23:00;;;;;;;0.25;0.10;;;14.00;54.20;;;;;;4965225;28;20077;-45
2023/03/14 10:25:31;;;;;;;1.23;0.10;;;13.80;54.30;;;;;;4966204;28;20501;-52
2023/03/14 10:27:58;;;;;;;0.28;0.15;;;13.70;54.60;;;;;;4965417;28;20050;-48
2023/03/14 10:30:33;;;;;;;1.95;0.30;;;13.40;54.90;;;;;;4965233;28;20051;-49
2023/03/14 10:33:09;;;;;;;2.53;0.30;;;13.20;55.40;;;;;;4966059;28;20065;-45
2023/03/14 10:35:37;;;;;;;0.52;0.30;;;13.00;55.80;;;;;;4965189;28;20055;-45
2023/03/14 10:38:05;;;;;;;0.25;0.25;;;12.90;56.20;;;;;;4965411;28;20065;-47
2023/03/14 10:40:38;;;;;;;0.55;0.32;;;12.70;56.60;;;;;;4964054;28;20047;-46
2023/03/14 10:43:07;;;;;;;0.60;0.50;;;12.60;57.00;;;;;;4966423;28;20494;-48
2023/03/14 10:45:39;;;;;;;0.30;0.30;;;12.40;57.00;;;;;;4967265;28;20062;-49
2023/03/14 10:48:21;;;;;;;0.47;0.30;;;12.40;57.20;;;;;;4966488;28;20062;-46
2023/03/14 10:51:02;;;;;;;1.45;0.47;;;12.20;57.30;;;;;;4967948;28;20061;-46
2023/03/14 10:53:39;;;;;;;1.08;0.47;;;12.10;57.60;;;;;;4965527;28;20073;-51
2023/03/14 10:56:12;;;;;;;0.93;0.50;;;12.00;57.70;;;;;;4965695;28;21035;-46
2023/03/14 10:58:42;;;;;;;0.57;0.32;;;11.90;57.70;;;;;;4967183;28;20061;-44
2023/03/14 11:01:37;;;;;;;0.70;0.55;;;11.90;58.00;;;;;;4967598;28;20414;-47
2023/03/14 11:04:14;;;;;;;1.25;0.47;;;11.70;58.30;;;;;;4964838;28;20055;-45
2023/03/14 11:06:45;;;;;;;1.90;0.60;;;11.70;58.30;;;;;;4965393;28;20535;-50
2023/03/14 11:09:22;;;;;;;1.08;0.50;;;11.60;58.40;;;;;;4962302;28;20058;-49
2023/03/14 11:11:50;;;;;;;0.65;0.50;;;11.50;58.60;;;;;;4964337;28;20058;-45
2023/03/14 11:14:29;;;;;;;0.43;0.43;;;11.50;58.50;;;;;;4966502;28;20574;-48
2023/03/14 11:17:01;;;;;;;1.58;0.50;;;11.40;58.60;;;;;;4967198;28;20065;-44
2023/03/14 11:19:43;;;;;;;1.35;0.50;;;11.40;58.60;;;;;;4965532;28;20074;-47
2023/03/14 11:22:21;;;;;;;1.30;0.43;;;11.40;58.60;;;;;;4966766;28;20046;-45
2023/03/14 11:24:59;;;;;;;2.72;0.50;;;11.40;58.80;;;;;;4965285;28;20059;-44
2023/03/14 11:27:38;;;;;;;2.38;0.50;;;11.30;58.80;;;;;;4964923;28;20053;-43
2023/03/14 11:30:18;;;;;;;0.77;0.30;;;11.30;59.00;;;;;;4966943;28;20435;-44
2023/03/14 11:32:49;;;;;;;1.38;0.50;;;11.30;59.00;;;;;;4967201;28;20069;-47
2023/03/14 11:35:23;;;;;;;1.38;0.63;;;11.30;59.00;;;;;;4965057;28;20061;-47
2023/03/14 11:37:56;;;;;;;2.28;0.60;;;11.30;59.10;;;;;;4966739;28;20050;-44
2023/03/14 11:40:28;;;;;;;0.75;0.40;;;11.30;59.10;;;;;;4965215;28;20414;-47
2023/03/14 11:43:02;;;;;;;2.70;0.35;;;11.30;59.10;;;;;;4963641;28;20054;-46
2023/03/14 11:45:36;;;;;;;2.95;0.50;;;11.30;59.20;;;;;;4966441;28;20054;-46
2023/03/14 11:48:18;;;;;;;1.23;0.57;;;11.30;59.30;;;;;;4967847;28;20065;-49
2023/03/14 11:50:49;;;;;;;2.85;0.60;;;11.30;59.30;;;;;;4967289;28;20833;-46
2023/03/14 11:53:22;;;;;;;2.65;0.65;;;11.30;59.40;;;;;;4966047;28;20062;-44
2023/03/14 11:55:51;;;;;;;2.25;1.05;;;11.30;59.50;;;;;;4961907;28;20050;-53
2023/03/14 11:58:24;;;;;;;1.92;0.60;;;11.40;59.30;;;;;;4964966;28;20061;-45
2023/03/14 12:00:54;;;;;;;2.00;0.60;;;11.40;59.10;;;;;;4965358;28;20143;-50
2023/03/14 12:03:28;;;;;;;0.73;0.55;;;11.40;59.10;;;;;;4966005;28;20486;-44
2023/03/14 12:06:10;;;;;;;3.30;0.80;;;11.50;59.10;;;;;;4966020;28;20058;-46
2023/03/14 12:08:45;;;;;;;0.90;0.63;;;11.50;58.70;;;;;;4965411;28;20057;-46
2023/03/14 12:11:36;;;;;;;2.55;1.10;;;11.60;58.40;;;;;;4965548;28;20066;-46
2023/03/14 12:14:19;;;;;;;7.25;0.63;;;11.60;58.10;;;;;;4964835;28;20459;-43
2023/03/14 12:16:48;;;;;;;1.10;0.70;;;11.70;57.90;;;;;;4963699;28;20063;-52
2023/03/14 12:19:39;;;;;;;3.00;1.17;;;11.70;57.80;;;;;;4964226;28;20058;-43
2023/03/14 12:22:28;;;;;;;1.65;0.60;;;11.70;57.50;;;;;;4962716;28;20067;-46
2023/03/14 12:25:01;;;;;;;1.20;0.10;;;11.70;55.90;;;;;;4964586;28;20058;-52
2023/03/14 12:27:47;;;;;;;0.70;0.10;;;11.60;55.10;;;;;;4961750;28;20479;-44
2023/03/14 12:30:34;;;;;;;0.28;0.10;;;11.50;54.50;;;;;;4964739;28;20054;-53
2023/03/14 12:33:32;;;;;;;0.85;0.10;;;11.30;54.80;;;;;;4963286;28;20530;-46
2023/03/14 12:36:01;;;;;;;1.80;0.40;;;11.20;55.10;;;;;;4959845;28;20055;-44
2023/03/14 12:38:40;;;;;;;0.35;0.15;;;11.10;55.30;;;;;;4965224;28;20058;-46
2023/03/14 12:41:15;;;;;;;1.50;0.20;;;11.00;55.80;;;;;;4963479;28;20070;-48
2023/03/14 12:43:43;;;;;;;0.25;0.10;;;10.90;56.10;;;;;;4965669;28;20478;-46
2023/03/14 12:46:27;;;;;;;0.25;0.20;;;10.80;56.30;;;;;;4965182;28;20058;-45
2023/03/14 12:49:05;;;;;;;0.47;0.30;;;10.80;56.70;;;;;;4967410;28;20061;-50
2023/03/14 12:51:37;;;;;;;3.33;0.40;;;10.70;56.90;;;;;;4968797;28;20257;-45
2023/03/14 12:54:28;;;;;;;2.67;0.65;;;10.60;57.10;;;;;;4964901;28;20058;-44
2023/03/14 12:57:15;;;;;;;1.88;0.70;;;10.60;57.50;;;;;;4968936;28;20051;-47
2023/03/14 12:59:48;;;;;;;2.75;0.85;;;10.50;57.60;;;;;;4967658;28;20533;-45
2023/03/14 13:02:24;;;;;;;1.25;0.80;;;10.50;58.00;;;;;;4967670;28;20091;-46
2023/03/14 13:04:54;;;;;;;4.50;1.55;;;10.40;58.30;;;;;;4967582;28;20510;-45
2023/03/14 13:07:40;;;;;;;2.80;1.00;;;10.30;58.50;;;;;;4968213;28;20055;-46
2023/03/14 13:10:20;;;;;;;5.30;1.30;;;10.30;58.70;;;;;;4967137;28;20418;-48
2023/03/14 13:12:52;;;;;;;3.63;1.35;;;10.30;58.70;;;;;;4966347;28;20063;-45
2023/03/14 13:15:25;;;;;;;4.30;1.48;;;10.20;58.70;;;;;;4969276;28;20065;-45
2023/03/14 13:17:57;;;;;;;5.72;2.50;;;10.20;59.00;;;;;;4967891;28;20507;-44
2023/03/14 13:20:30;;;;;;;7.63;3.33;;;10.10;59.10;;;;;;4967045;28;20419;-44
2023/03/14 13:22:57;;;;;;;5.97;2.90;;;10.10;58.90;;;;;;4966912;28;20554;-47
2023/03/14 13:25:24;;;;;;;4.55;2.80;;;10.10;58.80;;;;;;4967510;28;20051;-47
2023/03/14 13:27:54;;;;;;;5.32;3.03;;;10.10;58.80;;;;;;4964832;28;20046;-46
2023/03/14 13:30:24;;;;;;;8.65;3.50;;;10.00;58.90;;;;;;4967731;28;20518;-46
2023/03/14 13:32:54;;;;;;;6.00;2.90;;;10.00;59.00;;;;;;4970214;28;20513;-50